Time;durP1;ratioP1;P1;durP2;ratioP2;P2;SDS_P1;SDS_P2;PMS_P1;PMS_P2;Temp;Humidity;BMP_temperature;BMP_pressure;BME280_temperature;BME280_humidity;BME280_pressure;Samples;Min_cycle;Max_cycle;Signal;HPM_P1;HPM_P2
2021/12/10 00:00:49;;;;;;;76.13;35.27;;;5.20;99.90;;;;;;5094338;28;20250;-80
2021/12/10 00:03:21;;;;;;;78.37;35.00;;;5.20;99.90;;;;;;5094150;28;20303;-80
2021/12/10 00:05:55;;;;;;;78.00;34.37;;;5.20;99.90;;;;;;5089238;28;20234;-79
2021/12/10 00:08:25;;;;;;;75.67;34.80;;;5.20;99.90;;;;;;5094132;28;21123;-79
2021/12/10 00:10:57;;;;;;;79.13;33.90;;;5.20;99.90;;;;;;5092030;28;20229;-80
2021/12/10 00:13:25;;;;;;;83.07;36.03;;;5.20;99.90;;;;;;5091189;28;20225;-79
2021/12/10 00:15:54;;;;;;;87.70;36.10;;;5.10;99.90;;;;;;5094452;28;20213;-80
2021/12/10 00:18:32;;;;;;;80.37;35.87;;;5.10;99.90;;;;;;5092732;28;20219;-81
2021/12/10 00:20:59;;;;;;;81.17;34.40;;;5.20;99.90;;;;;;5088691;28;20220;-78
2021/12/10 00:23:28;;;;;;;73.90;34.33;;;5.10;99.90;;;;;;5087025;28;20708;-80
2021/12/10 00:25:56;;;;;;;98.67;36.50;;;5.10;99.90;;;;;;5093101;28;20224;-80
2021/12/10 00:28:25;;;;;;;77.60;34.87;;;5.10;99.90;;;;;;5091776;28;20380;-82
2021/12/10 00:31:04;;;;;;;84.53;36.10;;;5.10;99.90;;;;;;5099188;28;20262;-83
2021/12/10 00:33:37;;;;;;;87.63;35.23;;;5.10;99.90;;;;;;5100711;28;20231;-83
2021/12/10 00:36:05;;;;;;;82.37;34.53;;;5.10;99.90;;;;;;5096354;28;20315;-81
2021/12/10 00:38:34;;;;;;;77.13;35.17;;;5.10;99.90;;;;;;5102280;28;20234;-82
2021/12/10 00:41:01;;;;;;;84.37;35.70;;;5.10;99.90;;;;;;5090863;28;20218;-82
2021/12/10 00:43:28;;;;;;;75.07;34.33;;;5.10;99.90;;;;;;5093518;28;20237;-82
2021/12/10 00:45:56;;;;;;;75.00;33.83;;;5.10;99.90;;;;;;5091470;28;20222;-82
2021/12/10 00:48:23;;;;;;;72.97;34.67;;;5.10;99.90;;;;;;5092103;28;20240;-81
2021/12/10 00:50:54;;;;;;;79.77;34.27;;;5.00;99.90;;;;;;5092523;28;20698;-81
2021/12/10 00:53:21;;;;;;;74.33;33.60;;;5.00;99.90;;;;;;5092796;28;20209;-80
2021/12/10 00:55:48;;;;;;;81.30;35.37;;;5.00;99.90;;;;;;5090626;28;20238;-80
2021/12/10 00:58:15;;;;;;;79.90;35.30;;;5.10;99.90;;;;;;5088643;28;20284;-81
2021/12/10 01:00:45;;;;;;;78.77;35.20;;;5.10;99.90;;;;;;5095504;28;20749;-81
2021/12/10 01:03:16;;;;;;;88.60;35.80;;;5.10;99.90;;;;;;5091792;28;20221;-81
2021/12/10 01:05:47;;;;;;;74.67;34.00;;;5.10;99.90;;;;;;5106071;28;20234;-82
2021/12/10 01:08:16;;;;;;;79.37;35.07;;;5.10;99.90;;;;;;5091854;28;20228;-83
2021/12/10 01:10:47;;;;;;;79.80;36.43;;;5.10;99.90;;;;;;5082122;28;20335;-81
2021/12/10 01:13:18;;;;;;;80.97;35.03;;;5.10;99.90;;;;;;5090486;28;20723;-80
2021/12/10 01:16:05;;;;;;;75.30;34.53;;;5.20;99.90;;;;;;5090955;28;20243;-80
2021/12/10 01:24:18;;;;;;;74.90;33.87;;;5.20;99.90;;;;;;5099956;28;22191;-81
2021/12/10 01:26:59;;;;;;;72.40;34.37;;;5.20;99.90;;;;;;5092517;28;20228;-81
2021/12/10 01:29:29;;;;;;;78.00;34.60;;;5.10;99.90;;;;;;5089284;28;20354;-81
2021/12/10 01:31:57;;;;;;;73.53;34.20;;;5.20;99.90;;;;;;5086564;28;20591;-84
2021/12/10 01:34:23;;;;;;;76.87;35.10;;;5.10;99.90;;;;;;5086215;28;20226;-83
2021/12/10 01:36:50;;;;;;;85.90;35.43;;;5.10;99.90;;;;;;5086638;28;20231;-83
2021/12/10 01:39:21;;;;;;;72.23;33.30;;;5.10;99.90;;;;;;5089110;28;20286;-82
2021/12/10 01:41:55;;;;;;;77.17;35.87;;;5.20;99.90;;;;;;5091832;28;20209;-81
2021/12/10 01:44:29;;;;;;;72.97;35.73;;;5.10;99.90;;;;;;5091988;28;20409;-82
2021/12/10 01:46:58;;;;;;;94.57;34.67;;;5.10;99.90;;;;;;5091802;28;20684;-83
2021/12/10 01:49:25;;;;;;;72.00;34.23;;;5.10;99.90;;;;;;5097917;28;20213;-81
2021/12/10 01:51:52;;;;;;;77.20;34.83;;;5.10;99.90;;;;;;5093878;28;20225;-82
2021/12/10 01:54:27;;;;;;;76.53;35.07;;;5.10;99.90;;;;;;5091847;28;20216;-81
2021/12/10 01:56:56;;;;;;;79.17;34.93;;;5.20;99.90;;;;;;5092801;28;20481;-81
2021/12/10 01:59:26;;;;;;;81.57;35.30;;;5.10;99.90;;;;;;5089418;28;20262;-82
2021/12/10 02:01:56;;;;;;;68.67;32.20;;;5.20;99.90;;;;;;5092749;28;20229;-82
2021/12/10 02:04:25;;;;;;;76.87;33.47;;;5.10;99.90;;;;;;5092303;28;20248;-81
2021/12/10 02:06:53;;;;;;;76.30;34.73;;;5.10;99.90;;;;;;5095884;28;21047;-81
2021/12/10 02:09:21;;;;;;;78.23;35.10;;;5.10;99.90;;;;;;5088005;28;21202;-80
2021/12/10 02:11:51;;;;;;;72.77;32.60;;;5.20;99.90;;;;;;5088614;28;20293;-80
2021/12/10 02:14:20;;;;;;;71.80;33.83;;;5.10;99.90;;;;;;5089682;28;20232;-81
2021/12/10 02:16:48;;;;;;;77.67;33.53;;;5.10;99.90;;;;;;5090456;28;20221;-81
2021/12/10 02:19:16;;;;;;;68.63;33.90;;;5.10;99.90;;;;;;5082199;28;20245;-82
2021/12/10 02:21:46;;;;;;;73.80;32.17;;;5.10;99.90;;;;;;5095320;28;20230;-83
2021/12/10 02:24:13;;;;;;;69.23;31.40;;;5.10;99.90;;;;;;5089900;28;20250;-83
2021/12/10 02:26:43;;;;;;;70.23;32.53;;;5.10;99.90;;;;;;5084096;28;20210;-82
2021/12/10 02:29:11;;;;;;;73.77;32.53;;;5.10;99.90;;;;;;5090847;28;20223;-81
2021/12/10 02:31:39;;;;;;;71.40;33.30;;;5.10;99.90;;;;;;5095430;28;20274;-81
2021/12/10 02:34:08;;;;;;;65.80;30.93;;;5.10;99.90;;;;;;5084286;28;20214;-81
2021/12/10 02:36:39;;;;;;;71.67;32.77;;;5.20;99.90;;;;;;5088712;28;20360;-82
2021/12/10 02:39:08;;;;;;;75.03;33.73;;;5.20;99.90;;;;;;5087327;28;20216;-82
2021/12/10 02:41:35;;;;;;;77.30;33.83;;;5.20;99.90;;;;;;5091923;28;20214;-83
2021/12/10 02:44:03;;;;;;;70.40;32.77;;;5.20;99.90;;;;;;5092908;28;20229;-82
2021/12/10 02:46:31;;;;;;;67.53;31.30;;;5.20;99.90;;;;;;5091310;28;20228;-82
2021/12/10 02:48:57;;;;;;;72.93;32.53;;;5.20;99.90;;;;;;5086719;28;20302;-82
2021/12/10 02:51:24;;;;;;;74.63;33.60;;;5.20;99.90;;;;;;5091913;28;20280;-83
2021/12/10 02:53:52;;;;;;;70.43;32.53;;;5.20;99.90;;;;;;5089804;28;20224;-85
2021/12/10 02:56:22;;;;;;;74.67;32.13;;;5.20;99.90;;;;;;5093524;28;20306;-84
2021/12/10 02:58:53;;;;;;;76.80;33.50;;;5.20;99.90;;;;;;5085065;28;20803;-83
2021/12/10 03:01:24;;;;;;;72.30;32.60;;;5.20;99.90;;;;;;5094140;28;20316;-84
2021/12/10 03:03:51;;;;;;;63.67;32.57;;;5.20;99.90;;;;;;5084639;28;20312;-85
2021/12/10 03:06:19;;;;;;;67.43;32.13;;;5.20;99.90;;;;;;5090991;28;20220;-81
2021/12/10 03:08:48;;;;;;;65.57;31.07;;;5.20;99.90;;;;;;5090119;28;20225;-84
2021/12/10 03:11:16;;;;;;;68.73;31.70;;;5.20;99.90;;;;;;5088130;28;20213;-81
2021/12/10 03:13:45;;;;;;;67.43;32.03;;;5.20;99.90;;;;;;5092457;28;20227;-81
2021/12/10 03:16:13;;;;;;;73.30;33.10;;;5.20;99.90;;;;;;5088724;28;20223;-81
2021/12/10 03:18:40;;;;;;;63.93;31.27;;;5.20;99.90;;;;;;5088155;28;20237;-81
2021/12/10 03:21:09;;;;;;;68.27;32.63;;;5.20;99.90;;;;;;5088489;28;20224;-81
2021/12/10 03:23:36;;;;;;;156.03;36.73;;;5.20;99.90;;;;;;5099609;28;20233;-81
2021/12/10 03:26:04;;;;;;;67.17;31.20;;;5.20;99.90;;;;;;5081736;28;20219;-81
2021/12/10 03:28:30;;;;;;;66.53;31.60;;;5.20;99.90;;;;;;5088474;28;20217;-82
2021/12/10 03:30:59;;;;;;;66.87;30.80;;;5.20;99.90;;;;;;5105680;28;20234;-81
2021/12/10 03:33:26;;;;;;;64.67;30.73;;;5.20;99.90;;;;;;5087027;28;20562;-81
2021/12/10 03:35:53;;;;;;;67.87;32.27;;;5.20;99.90;;;;;;5088292;28;20600;-80
2021/12/10 03:38:23;;;;;;;67.33;32.10;;;5.20;99.90;;;;;;5086233;28;20234;-82
2021/12/10 03:40:51;;;;;;;66.70;31.70;;;5.20;99.90;;;;;;5089874;28;20229;-82
2021/12/10 03:43:18;;;;;;;65.37;30.03;;;5.20;99.90;;;;;;5085239;28;20232;-83
2021/12/10 03:45:49;;;;;;;61.00;30.53;;;5.20;99.90;;;;;;5079457;28;20220;-82
2021/12/10 03:48:20;;;;;;;61.93;30.67;;;5.20;99.90;;;;;;5088294;28;21268;-82
2021/12/10 03:50:49;;;;;;;68.27;30.63;;;5.20;99.90;;;;;;5092658;28;20236;-82
2021/12/10 03:53:17;;;;;;;62.90;29.10;;;5.20;99.90;;;;;;5094301;28;20714;-81
2021/12/10 03:55:45;;;;;;;59.97;29.40;;;5.20;99.90;;;;;;5092283;28;20262;-81
2021/12/10 03:58:12;;;;;;;66.93;31.07;;;5.20;99.90;;;;;;5091618;28;20334;-81
2021/12/10 04:00:43;;;;;;;63.90;30.33;;;5.20;99.90;;;;;;5091999;28;20229;-82
2021/12/10 04:03:11;;;;;;;63.07;30.43;;;5.20;99.90;;;;;;5090870;28;20901;-82
2021/12/10 04:05:40;;;;;;;65.07;29.53;;;5.20;99.90;;;;;;5092557;28;20218;-81
2021/12/10 04:08:07;;;;;;;60.97;28.67;;;5.20;99.90;;;;;;5092103;28;20216;-81
2021/12/10 04:10:36;;;;;;;68.30;29.87;;;5.30;99.90;;;;;;5096543;28;20232;-82
2021/12/10 04:13:03;;;;;;;63.67;29.90;;;5.30;99.90;;;;;;5090228;28;20257;-82
2021/12/10 04:15:31;;;;;;;81.43;31.57;;;5.30;99.90;;;;;;5091902;28;20226;-82
2021/12/10 04:17:58;;;;;;;60.30;30.37;;;5.30;99.90;;;;;;5089635;28;20578;-82
2021/12/10 04:20:28;;;;;;;55.63;29.10;;;5.30;99.90;;;;;;5094177;28;20231;-82
2021/12/10 04:22:58;;;;;;;61.80;29.57;;;5.30;99.90;;;;;;5090288;28;20274;-82
2021/12/10 04:25:26;;;;;;;66.47;28.40;;;5.30;99.90;;;;;;5093354;28;20220;-83
2021/12/10 04:27:54;;;;;;;59.37;29.17;;;5.20;99.90;;;;;;5092901;28;20222;-83
2021/12/10 04:30:23;;;;;;;57.63;28.70;;;5.20;99.90;;;;;;5099762;28;20229;-82
2021/12/10 04:32:51;;;;;;;61.60;30.17;;;5.20;99.90;;;;;;5098890;28;20231;-83
2021/12/10 04:35:18;;;;;;;61.47;29.43;;;5.20;99.90;;;;;;5099993;28;20323;-82
2021/12/10 04:37:45;;;;;;;63.80;30.73;;;5.20;99.90;;;;;;5101973;28;20286;-82
2021/12/10 04:40:17;;;;;;;61.03;29.80;;;5.20;99.90;;;;;;5085855;28;20230;-82
2021/12/10 04:42:46;;;;;;;163.70;34.57;;;5.20;99.90;;;;;;5101893;28;20228;-82
2021/12/10 04:45:16;;;;;;;66.13;29.80;;;5.20;99.90;;;;;;5094097;28;20223;-83
2021/12/10 04:47:43;;;;;;;60.10;29.53;;;5.20;99.90;;;;;;5100541;28;20270;-82
2021/12/10 04:50:11;;;;;;;63.73;27.93;;;5.20;99.90;;;;;;5088686;28;20721;-82
2021/12/10 04:52:38;;;;;;;57.60;29.37;;;5.20;99.90;;;;;;5092175;28;20224;-81
2021/12/10 04:55:08;;;;;;;56.40;29.43;;;5.20;99.90;;;;;;5093703;28;20245;-81
2021/12/10 04:57:36;;;;;;;62.93;29.23;;;5.20;99.90;;;;;;5087175;28;20232;-81
2021/12/10 05:00:05;;;;;;;59.37;28.30;;;5.20;99.90;;;;;;5088035;28;20312;-80
2021/12/10 05:02:35;;;;;;;60.47;28.03;;;5.20;99.90;;;;;;5105176;27;20237;-80
2021/12/10 05:05:02;;;;;;;61.97;28.90;;;5.20;99.90;;;;;;5089719;28;20227;-81
2021/12/10 05:07:31;;;;;;;59.40;29.50;;;5.20;99.90;;;;;;5096487;28;20250;-81
2021/12/10 05:09:58;;;;;;;63.50;29.60;;;5.20;99.90;;;;;;5091353;28;20570;-81
2021/12/10 05:12:25;;;;;;;65.00;28.07;;;5.20;99.90;;;;;;5092890;28;20239;-79
2021/12/10 05:14:59;;;;;;;58.90;27.83;;;5.20;99.90;;;;;;5092908;28;20712;-79
2021/12/10 05:17:28;;;;;;;59.10;29.43;;;5.20;99.90;;;;;;5087046;28;20218;-80
2021/12/10 05:19:55;;;;;;;56.00;27.00;;;5.20;99.90;;;;;;5095331;28;20264;-82
2021/12/10 05:22:22;;;;;;;62.33;28.07;;;5.20;99.90;;;;;;5099534;28;20304;-82
2021/12/10 05:24:49;;;;;;;80.93;31.10;;;5.20;99.90;;;;;;5088598;28;20224;-80
2021/12/10 05:27:16;;;;;;;59.57;28.80;;;5.10;99.90;;;;;;5089363;28;20270;-81
2021/12/10 05:29:42;;;;;;;65.97;28.73;;;5.10;99.90;;;;;;5086976;28;20691;-85
2021/12/10 05:32:16;;;;;;;59.57;26.43;;;5.20;99.90;;;;;;5078897;28;20305;-84
2021/12/10 05:34:42;;;;;;;62.67;28.00;;;5.10;99.90;;;;;;5089340;28;20615;-81
2021/12/10 05:37:10;;;;;;;55.33;26.97;;;5.20;99.90;;;;;;5093630;28;20251;-79
2021/12/10 05:39:37;;;;;;;54.50;26.90;;;5.20;99.90;;;;;;5096760;28;20228;-81
2021/12/10 05:42:05;;;;;;;63.73;29.10;;;5.20;99.90;;;;;;5092777;28;20316;-82
2021/12/10 05:44:32;;;;;;;63.53;26.77;;;5.10;99.90;;;;;;5093040;28;20227;-81
2021/12/10 05:46:59;;;;;;;65.00;27.77;;;5.20;99.90;;;;;;5096347;28;20225;-81
2021/12/10 05:49:28;;;;;;;70.50;26.90;;;5.20;99.90;;;;;;5100460;27;20248;-81
2021/12/10 05:51:55;;;;;;;59.93;27.00;;;5.20;99.90;;;;;;5090847;28;20231;-82
2021/12/10 05:54:22;;;;;;;58.73;26.83;;;5.20;99.90;;;;;;5097723;28;20241;-81
2021/12/10 05:56:49;;;;;;;58.40;26.37;;;5.20;99.90;;;;;;5095695;28;20221;-81
2021/12/10 05:59:15;;;;;;;56.97;27.07;;;5.20;99.90;;;;;;5094798;28;20236;-79
2021/12/10 06:01:42;;;;;;;58.17;27.00;;;5.20;99.90;;;;;;5097383;28;20223;-80
2021/12/10 06:04:09;;;;;;;62.83;27.37;;;5.20;99.90;;;;;;5092543;28;20221;-81
2021/12/10 06:06:37;;;;;;;62.87;28.53;;;5.20;99.90;;;;;;5093398;28;21033;-80
2021/12/10 06:09:08;;;;;;;54.83;27.03;;;5.20;99.90;;;;;;5087122;28;20223;-81
2021/12/10 06:11:36;;;;;;;61.43;27.50;;;5.20;99.90;;;;;;5097018;28;20265;-81
2021/12/10 06:14:04;;;;;;;56.37;27.93;;;5.20;99.90;;;;;;5087680;28;20229;-80
2021/12/10 06:16:31;;;;;;;59.23;27.07;;;5.10;99.90;;;;;;5090597;28;20232;-80
2021/12/10 06:18:58;;;;;;;60.13;27.17;;;5.10;99.90;;;;;;5089541;28;20235;-80
2021/12/10 06:21:24;;;;;;;56.97;27.67;;;5.10;99.90;;;;;;5090536;28;20227;-80
2021/12/10 06:23:53;;;;;;;66.87;27.13;;;5.10;99.90;;;;;;5082124;28;20249;-80
2021/12/10 06:26:19;;;;;;;55.70;27.07;;;5.10;99.90;;;;;;5101752;28;20324;-79
2021/12/10 06:28:47;;;;;;;58.63;28.27;;;5.10;99.90;;;;;;5097034;28;20232;-79
2021/12/10 06:31:15;;;;;;;55.27;26.80;;;5.10;99.90;;;;;;5087300;28;20272;-80
2021/12/10 06:33:42;;;;;;;77.10;28.67;;;5.10;99.90;;;;;;5084961;28;20222;-79
2021/12/10 06:36:10;;;;;;;70.03;27.33;;;5.00;99.90;;;;;;5080882;28;20284;-80
2021/12/10 06:38:37;;;;;;;58.63;28.30;;;5.10;99.90;;;;;;5087502;28;20700;-79
2021/12/10 06:41:07;;;;;;;60.37;27.40;;;5.00;99.90;;;;;;5090812;28;20222;-80
2021/12/10 06:43:33;;;;;;;59.90;26.93;;;5.10;99.90;;;;;;5094547;28;20612;-80
2021/12/10 06:46:01;;;;;;;57.23;26.60;;;4.90;99.90;;;;;;5087134;28;20225;-79
2021/12/10 06:48:29;;;;;;;58.80;26.63;;;4.90;99.90;;;;;;5100069;28;20233;-80
2021/12/10 06:51:00;;;;;;;58.33;27.77;;;4.90;99.90;;;;;;5094537;28;20799;-80
2021/12/10 06:53:29;;;;;;;125.30;30.07;;;4.80;99.90;;;;;;5084782;28;20320;-80
2021/12/10 06:55:57;;;;;;;60.93;28.03;;;4.80;99.90;;;;;;5092153;28;20229;-79
2021/12/10 06:58:25;;;;;;;58.13;26.50;;;4.70;99.90;;;;;;5084992;28;20299;-80
2021/12/10 07:00:54;;;;;;;54.87;26.40;;;4.70;99.90;;;;;;5085543;28;21062;-79
2021/12/10 07:03:23;;;;;;;82.50;27.83;;;4.60;99.90;;;;;;5100574;28;20223;-80
2021/12/10 07:05:51;;;;;;;59.33;27.63;;;4.60;99.90;;;;;;5091887;28;20218;-81
2021/12/10 07:08:19;;;;;;;56.00;25.67;;;4.60;99.90;;;;;;5087313;28;20591;-80
2021/12/10 07:10:46;;;;;;;59.93;26.47;;;4.50;99.90;;;;;;5086977;28;20233;-80
2021/12/10 07:13:15;;;;;;;56.87;27.50;;;4.50;99.90;;;;;;5090303;28;20245;-80
2021/12/10 07:15:48;;;;;;;55.07;25.63;;;4.40;99.90;;;;;;5096926;28;20248;-80
2021/12/10 07:18:16;;;;;;;60.13;27.23;;;4.40;99.90;;;;;;5095257;28;20746;-80
2021/12/10 07:20:44;;;;;;;62.33;28.40;;;4.50;99.90;;;;;;5086992;28;20799;-81
2021/12/10 07:23:11;;;;;;;59.50;26.80;;;4.50;99.90;;;;;;5087956;28;20683;-80
2021/12/10 07:25:39;;;;;;;58.83;25.20;;;4.40;99.90;;;;;;5087372;28;20651;-80
2021/12/10 07:28:06;;;;;;;59.00;27.57;;;4.50;99.90;;;;;;5099451;28;20220;-81
2021/12/10 07:30:34;;;;;;;70.73;27.37;;;4.50;99.90;;;;;;5088741;28;20229;-80
2021/12/10 07:33:08;;;;;;;56.77;26.63;;;4.50;99.90;;;;;;5096101;28;20217;-80
2021/12/10 07:35:36;;;;;;;55.73;26.93;;;4.60;99.90;;;;;;5088911;28;20224;-80
2021/12/10 07:38:04;;;;;;;58.33;26.87;;;4.60;99.90;;;;;;5090017;28;20235;-80
2021/12/10 07:40:34;;;;;;;55.50;26.90;;;4.60;99.90;;;;;;5092249;28;20229;-80
2021/12/10 07:43:00;;;;;;;56.97;26.37;;;4.60;99.90;;;;;;5085524;28;20227;-79
2021/12/10 07:45:27;;;;;;;57.10;26.80;;;4.60;99.90;;;;;;5102231;28;20234;-79
2021/12/10 07:47:55;;;;;;;56.60;26.53;;;4.70;99.90;;;;;;5091049;28;20714;-80
2021/12/10 07:50:28;;;;;;;62.13;26.67;;;4.70;99.90;;;;;;5089969;28;20226;-81
2021/12/10 07:52:56;;;;;;;58.93;27.07;;;4.70;99.90;;;;;;5100409;28;20256;-80
2021/12/10 07:55:26;;;;;;;59.90;26.60;;;4.80;99.90;;;;;;5085172;28;20221;-80
2021/12/10 07:57:53;;;;;;;55.97;26.67;;;4.80;99.90;;;;;;5094185;28;20214;-79
2021/12/10 08:00:23;;;;;;;57.93;26.53;;;4.90;99.90;;;;;;5096875;27;20331;-80
2021/12/10 08:02:50;;;;;;;60.70;26.40;;;5.00;99.90;;;;;;5098742;28;20218;-81
2021/12/10 08:05:18;;;;;;;54.53;26.30;;;4.90;99.90;;;;;;5090101;28;20886;-80
2021/12/10 08:07:46;;;;;;;55.47;26.37;;;5.00;99.90;;;;;;5084195;28;20230;-80
2021/12/10 08:10:14;;;;;;;55.87;26.83;;;5.00;99.90;;;;;;5093753;28;20229;-81
2021/12/10 08:12:41;;;;;;;58.37;26.97;;;5.00;99.90;;;;;;5086375;28;20229;-80
2021/12/10 08:15:09;;;;;;;56.53;26.40;;;5.10;99.90;;;;;;5091292;28;20221;-81
2021/12/10 08:17:37;;;;;;;51.63;25.80;;;5.10;99.90;;;;;;5098991;28;20225;-81
2021/12/10 08:20:08;;;;;;;56.70;25.77;;;5.10;99.90;;;;;;5093589;28;20225;-80
2021/12/10 08:22:35;;;;;;;52.70;25.37;;;5.10;99.90;;;;;;5099103;28;20694;-81
2021/12/10 08:25:05;;;;;;;55.67;25.40;;;5.20;99.90;;;;;;5103089;28;20235;-80
2021/12/10 08:27:32;;;;;;;53.10;24.87;;;5.20;99.90;;;;;;5103620;28;20958;-81
2021/12/10 08:30:03;;;;;;;50.67;24.90;;;5.20;99.90;;;;;;5091216;28;20204;-80
2021/12/10 08:32:31;;;;;;;50.80;24.70;;;5.30;99.90;;;;;;5090533;28;20223;-80
2021/12/10 08:35:03;;;;;;;55.37;25.60;;;5.30;99.90;;;;;;5096318;28;20234;-80
2021/12/10 08:37:30;;;;;;;52.13;24.73;;;5.30;99.90;;;;;;5094865;28;20292;-80
2021/12/10 08:39:57;;;;;;;50.53;25.40;;;5.40;99.90;;;;;;5082481;28;20220;-80
2021/12/10 08:42:26;;;;;;;54.03;25.80;;;5.40;99.90;;;;;;5086576;28;20304;-81
2021/12/10 08:44:53;;;;;;;51.47;24.27;;;5.40;99.90;;;;;;5091347;28;20229;-80
2021/12/10 08:47:20;;;;;;;52.47;24.67;;;5.40;99.90;;;;;;5099534;28;20215;-80
2021/12/10 08:49:47;;;;;;;50.07;24.27;;;5.40;99.90;;;;;;5099821;28;20885;-80
2021/12/10 08:52:15;;;;;;;50.80;23.60;;;5.50;99.90;;;;;;5091894;28;20899;-81
2021/12/10 08:54:43;;;;;;;47.50;23.43;;;5.50;99.90;;;;;;5098877;28;20222;-80
2021/12/10 08:57:11;;;;;;;54.57;25.17;;;5.50;99.90;;;;;;5103860;28;20221;-80
2021/12/10 08:59:40;;;;;;;50.97;24.23;;;5.50;99.90;;;;;;5094321;28;20215;-80
2021/12/10 09:02:10;;;;;;;47.63;24.23;;;5.50;99.90;;;;;;5092938;28;20958;-81
2021/12/10 09:04:37;;;;;;;47.67;22.73;;;5.60;99.90;;;;;;5090032;28;20688;-80
2021/12/10 09:07:08;;;;;;;50.70;24.73;;;5.60;99.90;;;;;;5089741;28;20225;-81
2021/12/10 09:09:36;;;;;;;51.00;24.13;;;5.60;99.90;;;;;;5087833;28;20712;-80
2021/12/10 09:12:07;;;;;;;52.07;24.47;;;5.70;99.90;;;;;;5094116;28;20227;-80
2021/12/10 09:14:39;;;;;;;46.67;22.80;;;5.70;99.90;;;;;;5089279;28;20234;-80
2021/12/10 09:17:09;;;;;;;47.37;22.70;;;5.70;99.90;;;;;;5088866;28;20225;-80
2021/12/10 09:19:35;;;;;;;51.13;23.80;;;5.80;99.90;;;;;;5095765;28;20616;-80
2021/12/10 09:22:04;;;;;;;41.47;21.97;;;5.80;99.90;;;;;;5098302;28;20219;-80
2021/12/10 09:24:31;;;;;;;46.90;22.87;;;5.80;99.90;;;;;;5088231;28;20815;-80
2021/12/10 09:26:59;;;;;;;46.13;22.47;;;5.80;99.90;;;;;;5099675;28;20221;-80
2021/12/10 09:29:31;;;;;;;48.97;22.93;;;5.90;99.90;;;;;;5083123;28;20699;-80
2021/12/10 09:31:59;;;;;;;44.70;22.17;;;5.90;99.90;;;;;;5097503;28;20244;-79
2021/12/10 09:34:28;;;;;;;46.00;21.37;;;5.90;99.90;;;;;;5083077;28;20311;-80
2021/12/10 09:36:55;;;;;;;43.60;21.23;;;6.00;99.90;;;;;;5095092;28;20235;-80
2021/12/10 09:39:22;;;;;;;47.73;23.03;;;6.00;99.90;;;;;;5089389;28;20558;-79
2021/12/10 09:41:50;;;;;;;45.50;22.43;;;6.00;99.90;;;;;;5082432;28;20217;-80
2021/12/10 09:44:18;;;;;;;39.67;20.23;;;6.00;99.90;;;;;;5094432;28;20226;-80
2021/12/10 09:46:48;;;;;;;41.33;19.93;;;6.10;99.90;;;;;;5098209;28;20255;-80
2021/12/10 09:49:16;;;;;;;41.27;19.63;;;6.10;99.90;;;;;;5093682;28;20231;-80
2021/12/10 09:51:47;;;;;;;43.37;20.07;;;6.10;99.90;;;;;;5088271;28;20226;-80
2021/12/10 09:54:19;;;;;;;46.40;21.17;;;6.10;99.90;;;;;;5088463;28;20215;-80
2021/12/10 09:56:50;;;;;;;47.20;21.63;;;6.20;99.90;;;;;;5084200;28;20244;-80
2021/12/10 09:59:17;;;;;;;42.00;21.13;;;6.20;99.90;;;;;;5088792;28;20217;-79
2021/12/10 10:01:47;;;;;;;44.30;20.97;;;6.20;99.90;;;;;;5092156;28;20308;-80
2021/12/10 10:04:17;;;;;;;39.10;20.73;;;6.30;99.90;;;;;;5084987;28;21076;-80
2021/12/10 10:06:50;;;;;;;38.50;19.77;;;6.30;99.90;;;;;;5095752;28;20243;-80
2021/12/10 10:09:19;;;;;;;43.27;21.23;;;6.30;99.90;;;;;;5088344;28;20234;-80
2021/12/10 10:11:48;;;;;;;38.43;19.23;;;6.40;99.90;;;;;;5098442;28;20776;-79
2021/12/10 10:14:15;;;;;;;43.60;21.40;;;6.40;99.90;;;;;;5097486;28;20218;-80
2021/12/10 10:16:44;;;;;;;45.50;21.17;;;6.40;99.90;;;;;;5097388;28;20216;-80
2021/12/10 10:19:11;;;;;;;41.07;20.70;;;6.40;99.90;;;;;;5085084;28;20234;-80
2021/12/10 10:21:41;;;;;;;39.03;20.13;;;6.50;99.90;;;;;;5086064;28;20251;-79
2021/12/10 10:24:10;;;;;;;43.13;21.27;;;6.50;99.90;;;;;;5085421;28;20221;-79
2021/12/10 10:26:41;;;;;;;42.63;21.10;;;6.50;99.90;;;;;;5099801;28;20844;-80
2021/12/10 10:29:10;;;;;;;37.30;20.80;;;6.60;99.90;;;;;;5090549;28;20230;-79
2021/12/10 10:31:42;;;;;;;43.37;21.00;;;6.60;99.90;;;;;;5102571;28;20240;-79
2021/12/10 10:34:11;;;;;;;41.33;20.97;;;6.60;99.90;;;;;;5095695;28;20362;-80
2021/12/10 10:36:38;;;;;;;43.30;21.23;;;6.70;99.90;;;;;;5089354;28;20288;-79
2021/12/10 10:39:09;;;;;;;43.80;21.33;;;6.70;99.90;;;;;;5088229;28;20217;-80
2021/12/10 10:41:38;;;;;;;39.80;20.40;;;6.70;99.90;;;;;;5102002;28;20502;-80
2021/12/10 10:44:06;;;;;;;44.03;22.97;;;6.70;99.90;;;;;;5092483;28;20602;-79
2021/12/10 10:46:34;;;;;;;39.33;20.87;;;6.80;99.90;;;;;;5092921;28;20399;-80
2021/12/10 10:49:01;;;;;;;44.53;22.63;;;6.80;99.90;;;;;;5088590;28;20591;-79
2021/12/10 10:51:33;;;;;;;43.73;21.77;;;6.80;99.90;;;;;;5093301;28;20545;-80
2021/12/10 10:54:02;;;;;;;40.20;21.00;;;6.80;99.90;;;;;;5071753;28;20214;-79
2021/12/10 10:56:32;;;;;;;48.37;23.10;;;6.80;99.90;;;;;;5090944;28;20225;-80
2021/12/10 10:59:09;;;;;;;43.70;22.17;;;6.90;99.90;;;;;;5095867;28;20228;-80
2021/12/10 11:01:41;;;;;;;41.27;21.73;;;6.90;99.90;;;;;;5090120;28;20225;-79
2021/12/10 11:04:16;;;;;;;46.17;21.93;;;6.90;99.90;;;;;;5089633;28;20227;-80
2021/12/10 11:06:47;;;;;;;42.93;20.80;;;7.00;99.90;;;;;;5079414;28;20282;-79
2021/12/10 11:09:16;;;;;;;44.10;21.87;;;7.00;99.90;;;;;;5086700;28;20213;-79
2021/12/10 11:11:48;;;;;;;39.53;21.33;;;7.00;99.90;;;;;;5087676;28;20227;-79
2021/12/10 11:14:19;;;;;;;44.33;21.93;;;7.10;99.90;;;;;;5086200;28;20233;-79
2021/12/10 11:16:51;;;;;;;43.10;21.87;;;7.10;99.90;;;;;;5080691;28;20254;-80
2021/12/10 11:19:20;;;;;;;42.20;21.40;;;7.10;99.90;;;;;;5089220;28;20241;-80
2021/12/10 11:21:51;;;;;;;42.03;21.60;;;7.20;99.90;;;;;;5092510;28;20238;-80
2021/12/10 11:24:23;;;;;;;39.97;20.87;;;7.20;99.90;;;;;;5093603;28;20277;-80
2021/12/10 11:26:58;;;;;;;39.90;20.43;;;7.20;99.90;;;;;;5085799;28;20216;-80
2021/12/10 11:29:47;;;;;;;42.03;22.07;;;7.20;99.90;;;;;;5083220;28;20298;-79
2021/12/10 11:32:19;;;;;;;40.87;20.50;;;7.30;99.90;;;;;;5086901;28;20230;-80
2021/12/10 11:34:50;;;;;;;42.47;22.07;;;7.30;99.90;;;;;;5090395;28;20209;-79
2021/12/10 11:37:19;;;;;;;43.60;21.50;;;7.30;99.90;;;;;;5082848;28;20247;-79
2021/12/10 11:39:49;;;;;;;42.70;21.87;;;7.30;99.90;;;;;;5086132;28;20257;-79
2021/12/10 11:42:35;;;;;;;40.30;21.40;;;7.30;99.90;;;;;;5092235;28;20312;-80
2021/12/10 11:45:29;;;;;;;43.43;20.60;;;7.40;99.90;;;;;;5089536;28;20349;-80
2021/12/10 11:48:05;;;;;;;39.57;20.43;;;7.40;99.90;;;;;;5085008;28;20644;-79
2021/12/10 11:50:34;;;;;;;37.07;20.70;;;7.40;99.90;;;;;;5091153;28;20218;-80
2021/12/10 11:53:07;;;;;;;40.83;21.13;;;7.50;99.90;;;;;;5085454;28;20245;-80
2021/12/10 11:55:35;;;;;;;39.07;19.67;;;7.50;99.90;;;;;;5091488;28;20226;-79
2021/12/10 11:58:03;;;;;;;43.10;20.47;;;7.50;99.90;;;;;;5089151;28;22096;-80
2021/12/10 12:00:40;;;;;;;42.17;20.77;;;7.50;99.90;;;;;;5086954;28;20955;-79
2021/12/10 12:03:08;;;;;;;35.80;19.33;;;7.60;99.90;;;;;;5084584;28;20290;-80
2021/12/10 12:05:40;;;;;;;39.47;20.67;;;7.70;99.90;;;;;;5085899;28;20226;-80
2021/12/10 12:08:10;;;;;;;41.73;20.87;;;7.70;99.90;;;;;;5082536;28;21024;-79
2021/12/10 12:10:40;;;;;;;37.60;19.67;;;7.70;99.90;;;;;;5100593;28;20235;-80
2021/12/10 12:13:20;;;;;;;40.73;19.77;;;7.80;99.90;;;;;;5091304;28;20225;-79
2021/12/10 12:15:51;;;;;;;35.03;20.03;;;7.80;99.90;;;;;;5093018;28;20229;-79
2021/12/10 12:18:25;;;;;;;36.47;19.87;;;7.80;99.90;;;;;;5102531;28;20228;-80
2021/12/10 12:20:55;;;;;;;35.70;19.43;;;7.80;99.90;;;;;;5104413;28;20228;-80
2021/12/10 12:26:10;;;;;;;37.67;19.37;;;7.90;99.90;;;;;;5094985;28;20223;-80
2021/12/10 12:28:40;;;;;;;37.97;19.20;;;7.90;99.90;;;;;;5094052;28;20219;-81
2021/12/10 12:31:12;;;;;;;37.07;19.03;;;7.90;99.90;;;;;;5103336;28;20234;-80
2021/12/10 12:33:58;;;;;;;34.50;18.83;;;7.90;99.90;;;;;;5105100;28;20284;-79
2021/12/10 12:36:27;;;;;;;32.67;17.27;;;7.90;99.90;;;;;;5086917;28;20222;-80
2021/12/10 12:38:54;;;;;;;35.00;18.23;;;7.90;99.90;;;;;;5085454;28;20293;-79
2021/12/10 12:41:23;;;;;;;37.33;19.10;;;7.90;99.90;;;;;;5098133;28;20355;-79
2021/12/10 12:44:10;;;;;;;34.43;18.53;;;7.90;99.90;;;;;;5080953;28;20230;-79
2021/12/10 12:47:06;;;;;;;34.23;18.43;;;7.90;99.90;;;;;;5090819;28;20217;-80
2021/12/10 12:49:52;;;;;;;43.17;20.60;;;7.90;99.90;;;;;;5091788;28;20348;-79
2021/12/10 12:52:23;;;;;;;33.10;18.73;;;7.90;99.90;;;;;;5091336;28;20229;-80
2021/12/10 12:55:14;;;;;;;38.73;19.67;;;7.90;99.90;;;;;;5095919;28;20225;-81